sensor_id;sensor_type;location;lat;lon;timestamp;P1;durP1;ratioP1;P2;durP2;ratioP2
43996;SDS011;34318;45.818;15.964;2023-08-06T00:02:26;1.23;;;1.20;;
43996;SDS011;34318;45.818;15.964;2023-08-06T00:04:53;1.30;;;1.20;;
43996;SDS011;34318;45.818;15.964;2023-08-06T00:07:21;1.10;;;0.90;;
43996;SDS011;34318;45.818;15.964;2023-08-06T00:09:48;0.90;;;0.90;;
43996;SDS011;34318;45.818;15.964;2023-08-06T00:12:15;0.88;;;0.88;;
43996;SDS011;34318;45.818;15.964;2023-08-06T00:14:43;1.17;;;1.08;;
43996;SDS011;34318;45.818;15.964;2023-08-06T00:17:11;0.93;;;0.88;;
43996;SDS011;34318;45.818;15.964;2023-08-06T00:19:38;1.95;;;0.93;;
43996;SDS011;34318;45.818;15.964;2023-08-06T00:22:05;1.42;;;1.10;;
43996;SDS011;34318;45.818;15.964;2023-08-06T00:24:33;1.15;;;1.05;;
43996;SDS011;34318;45.818;15.964;2023-08-06T00:27:01;0.73;;;0.73;;
43996;SDS011;34318;45.818;15.964;2023-08-06T00:29:28;0.98;;;0.88;;
43996;SDS011;34318;45.818;15.964;2023-08-06T00:31:55;0.60;;;0.60;;
43996;SDS011;34318;45.818;15.964;2023-08-06T00:34:22;0.95;;;0.93;;
43996;SDS011;34318;45.818;15.964;2023-08-06T00:36:50;0.98;;;0.98;;
43996;SDS011;34318;45.818;15.964;2023-08-06T00:39:17;2.17;;;1.00;;
43996;SDS011;34318;45.818;15.964;2023-08-06T00:41:44;1.02;;;1.02;;
43996;SDS011;34318;45.818;15.964;2023-08-06T00:44:12;1.42;;;1.27;;
43996;SDS011;34318;45.818;15.964;2023-08-06T00:46:39;0.80;;;0.75;;
43996;SDS011;34318;45.818;15.964;2023-08-06T00:49:06;1.48;;;1.38;;
43996;SDS011;34318;45.818;15.964;2023-08-06T00:51:34;0.73;;;0.73;;
43996;SDS011;34318;45.818;15.964;2023-08-06T00:54:01;1.20;;;1.13;;
43996;SDS011;34318;45.818;15.964;2023-08-06T00:56:29;0.60;;;0.60;;
43996;SDS011;34318;45.818;15.964;2023-08-06T00:58:56;0.95;;;0.95;;
43996;SDS011;34318;45.818;15.964;2023-08-06T01:01:23;1.02;;;1.02;;
43996;SDS011;34318;45.818;15.964;2023-08-06T01:03:51;1.10;;;0.80;;
43996;SDS011;34318;45.818;15.964;2023-08-06T01:06:19;0.85;;;0.85;;
43996;SDS011;34318;45.818;15.964;2023-08-06T01:08:48;0.63;;;0.63;;
43996;SDS011;34318;45.818;15.964;2023-08-06T01:14:15;3.03;;;0.98;;
43996;SDS011;34318;45.818;15.964;2023-08-06T01:16:40;0.70;;;0.70;;
43996;SDS011;34318;45.818;15.964;2023-08-06T01:19:20;0.70;;;0.70;;
43996;SDS011;34318;45.818;15.964;2023-08-06T01:21:48;2.28;;;0.88;;
43996;SDS011;34318;45.818;15.964;2023-08-06T01:24:16;0.77;;;0.77;;
43996;SDS011;34318;45.818;15.964;2023-08-06T01:26:52;0.95;;;0.80;;
43996;SDS011;34318;45.818;15.964;2023-08-06T01:29:25;0.52;;;0.52;;
43996;SDS011;34318;45.818;15.964;2023-08-06T01:31:55;0.40;;;0.40;;
43996;SDS011;34318;45.818;15.964;2023-08-06T01:34:27;1.00;;;1.00;;
43996;SDS011;34318;45.818;15.964;2023-08-06T01:36:55;0.93;;;0.93;;
43996;SDS011;34318;45.818;15.964;2023-08-06T01:39:22;0.82;;;0.80;;
43996;SDS011;34318;45.818;15.964;2023-08-06T01:41:49;1.17;;;1.10;;
43996;SDS011;34318;45.818;15.964;2023-08-06T01:44:17;0.55;;;0.55;;
43996;SDS011;34318;45.818;15.964;2023-08-06T01:46:44;0.70;;;0.70;;
43996;SDS011;34318;45.818;15.964;2023-08-06T01:49:12;0.90;;;0.90;;
43996;SDS011;34318;45.818;15.964;2023-08-06T01:51:39;0.63;;;0.63;;
43996;SDS011;34318;45.818;15.964;2023-08-06T01:54:06;0.88;;;0.88;;
43996;SDS011;34318;45.818;15.964;2023-08-06T01:56:33;0.90;;;0.90;;
43996;SDS011;34318;45.818;15.964;2023-08-06T01:59:01;1.10;;;1.10;;
43996;SDS011;34318;45.818;15.964;2023-08-06T02:01:30;0.68;;;0.68;;
43996;SDS011;34318;45.818;15.964;2023-08-06T02:03:57;0.90;;;0.90;;
43996;SDS011;34318;45.818;15.964;2023-08-06T02:06:25;0.73;;;0.73;;
43996;SDS011;34318;45.818;15.964;2023-08-06T02:08:52;1.08;;;1.08;;
43996;SDS011;34318;45.818;15.964;2023-08-06T02:11:19;1.33;;;0.85;;
43996;SDS011;34318;45.818;15.964;2023-08-06T02:13:46;1.15;;;1.15;;
43996;SDS011;34318;45.818;15.964;2023-08-06T02:16:14;1.85;;;0.85;;
43996;SDS011;34318;45.818;15.964;2023-08-06T02:18:41;0.90;;;0.90;;
43996;SDS011;34318;45.818;15.964;2023-08-06T02:21:08;0.90;;;0.90;;
43996;SDS011;34318;45.818;15.964;2023-08-06T02:23:36;0.77;;;0.77;;
43996;SDS011;34318;45.818;15.964;2023-08-06T02:26:03;2.03;;;0.70;;
43996;SDS011;34318;45.818;15.964;2023-08-06T02:28:31;0.90;;;0.90;;
43996;SDS011;34318;45.818;15.964;2023-08-06T02:30:58;0.70;;;0.70;;
43996;SDS011;34318;45.818;15.964;2023-08-06T02:33:27;0.68;;;0.68;;
43996;SDS011;34318;45.818;15.964;2023-08-06T02:36:01;0.88;;;0.88;;
43996;SDS011;34318;45.818;15.964;2023-08-06T02:38:30;0.85;;;0.85;;
43996;SDS011;34318;45.818;15.964;2023-08-06T02:40:57;1.23;;;1.13;;
43996;SDS011;34318;45.818;15.964;2023-08-06T02:43:24;1.00;;;0.90;;
43996;SDS011;34318;45.818;15.964;2023-08-06T02:45:56;1.20;;;0.93;;
43996;SDS011;34318;45.818;15.964;2023-08-06T02:48:24;1.00;;;0.90;;
43996;SDS011;34318;45.818;15.964;2023-08-06T02:50:51;0.50;;;0.50;;
43996;SDS011;34318;45.818;15.964;2023-08-06T02:53:18;0.82;;;0.82;;
43996;SDS011;34318;45.818;15.964;2023-08-06T02:55:46;0.93;;;0.88;;
43996;SDS011;34318;45.818;15.964;2023-08-06T02:58:16;0.73;;;0.73;;
43996;SDS011;34318;45.818;15.964;2023-08-06T03:01:04;0.60;;;0.60;;
43996;SDS011;34318;45.818;15.964;2023-08-06T03:03:32;1.10;;;0.80;;
43996;SDS011;34318;45.818;15.964;2023-08-06T03:05:59;0.88;;;0.88;;
43996;SDS011;34318;45.818;15.964;2023-08-06T03:08:27;1.10;;;1.10;;
43996;SDS011;34318;45.818;15.964;2023-08-06T03:10:55;0.50;;;0.50;;
43996;SDS011;34318;45.818;15.964;2023-08-06T03:13:22;0.95;;;0.95;;
43996;SDS011;34318;45.818;15.964;2023-08-06T03:15:56;1.75;;;0.85;;
43996;SDS011;34318;45.818;15.964;2023-08-06T03:18:23;0.50;;;0.50;;
43996;SDS011;34318;45.818;15.964;2023-08-06T03:20:52;0.77;;;0.77;;
43996;SDS011;34318;45.818;15.964;2023-08-06T03:23:19;0.95;;;0.80;;
43996;SDS011;34318;45.818;15.964;2023-08-06T03:25:47;0.65;;;0.65;;
43996;SDS011;34318;45.818;15.964;2023-08-06T03:28:14;0.73;;;0.73;;
43996;SDS011;34318;45.818;15.964;2023-08-06T03:30:41;0.90;;;0.90;;
43996;SDS011;34318;45.818;15.964;2023-08-06T03:33:08;0.60;;;0.60;;
43996;SDS011;34318;45.818;15.964;2023-08-06T03:35:36;0.75;;;0.70;;
43996;SDS011;34318;45.818;15.964;2023-08-06T03:38:03;0.90;;;0.90;;
43996;SDS011;34318;45.818;15.964;2023-08-06T03:40:30;0.63;;;0.63;;
43996;SDS011;34318;45.818;15.964;2023-08-06T03:42:58;0.73;;;0.73;;
43996;SDS011;34318;45.818;15.964;2023-08-06T03:45:25;0.77;;;0.73;;
43996;SDS011;34318;45.818;15.964;2023-08-06T03:47:52;1.20;;;1.10;;
43996;SDS011;34318;45.818;15.964;2023-08-06T03:50:19;0.63;;;0.63;;
43996;SDS011;34318;45.818;15.964;2023-08-06T03:52:47;0.90;;;0.90;;
43996;SDS011;34318;45.818;15.964;2023-08-06T03:55:14;0.73;;;0.73;;
43996;SDS011;34318;45.818;15.964;2023-08-06T03:57:44;0.95;;;0.95;;
43996;SDS011;34318;45.818;15.964;2023-08-06T04:00:11;0.50;;;0.50;;
43996;SDS011;34318;45.818;15.964;2023-08-06T04:02:39;0.65;;;0.65;;
43996;SDS011;34318;45.818;15.964;2023-08-06T04:05:06;0.50;;;0.50;;
43996;SDS011;34318;45.818;15.964;2023-08-06T04:07:33;0.60;;;0.60;;
43996;SDS011;34318;45.818;15.964;2023-08-06T04:10:02;0.60;;;0.60;;
43996;SDS011;34318;45.818;15.964;2023-08-06T04:12:29;1.38;;;0.77;;
43996;SDS011;34318;45.818;15.964;2023-08-06T04:14:58;0.60;;;0.60;;
43996;SDS011;34318;45.818;15.964;2023-08-06T04:17:25;0.45;;;0.45;;
43996;SDS011;34318;45.818;15.964;2023-08-06T04:19:53;0.80;;;0.73;;
43996;SDS011;34318;45.818;15.964;2023-08-06T04:22:21;0.43;;;0.43;;
43996;SDS011;34318;45.818;15.964;2023-08-06T04:24:48;0.85;;;0.85;;
43996;SDS011;34318;45.818;15.964;2023-08-06T04:27:16;1.80;;;0.75;;
43996;SDS011;34318;45.818;15.964;2023-08-06T04:29:43;0.88;;;0.82;;
43996;SDS011;34318;45.818;15.964;2023-08-06T04:32:11;0.93;;;0.93;;
43996;SDS011;34318;45.818;15.964;2023-08-06T04:34:38;0.85;;;0.85;;
43996;SDS011;34318;45.818;15.964;2023-08-06T04:37:05;0.40;;;0.40;;
43996;SDS011;34318;45.818;15.964;2023-08-06T04:39:32;0.73;;;0.73;;
43996;SDS011;34318;45.818;15.964;2023-08-06T04:41:59;0.68;;;0.68;;
43996;SDS011;34318;45.818;15.964;2023-08-06T04:44:27;0.55;;;0.55;;
43996;SDS011;34318;45.818;15.964;2023-08-06T04:46:54;0.60;;;0.60;;
43996;SDS011;34318;45.818;15.964;2023-08-06T04:49:21;0.68;;;0.68;;
43996;SDS011;34318;45.818;15.964;2023-08-06T04:51:49;0.43;;;0.43;;
43996;SDS011;34318;45.818;15.964;2023-08-06T04:54:16;0.40;;;0.40;;
43996;SDS011;34318;45.818;15.964;2023-08-06T04:56:43;0.70;;;0.70;;
43996;SDS011;34318;45.818;15.964;2023-08-06T04:59:11;0.38;;;0.38;;
43996;SDS011;34318;45.818;15.964;2023-08-06T05:01:38;0.32;;;0.32;;
43996;SDS011;34318;45.818;15.964;2023-08-06T05:04:05;0.60;;;0.60;;
43996;SDS011;34318;45.818;15.964;2023-08-06T05:06:32;0.77;;;0.77;;
43996;SDS011;34318;45.818;15.964;2023-08-06T05:09:00;0.40;;;0.40;;
43996;SDS011;34318;45.818;15.964;2023-08-06T05:11:27;0.70;;;0.70;;
43996;SDS011;34318;45.818;15.964;2023-08-06T05:13:54;0.60;;;0.60;;
43996;SDS011;34318;45.818;15.964;2023-08-06T05:16:22;0.50;;;0.50;;
43996;SDS011;34318;45.818;15.964;2023-08-06T05:18:49;0.40;;;0.40;;
43996;SDS011;34318;45.818;15.964;2023-08-06T05:21:16;0.57;;;0.57;;
43996;SDS011;34318;45.818;15.964;2023-08-06T05:23:43;0.50;;;0.50;;
43996;SDS011;34318;45.818;15.964;2023-08-06T05:26:11;0.45;;;0.45;;
43996;SDS011;34318;45.818;15.964;2023-08-06T05:28:40;0.63;;;0.63;;
43996;SDS011;34318;45.818;15.964;2023-08-06T05:31:08;0.68;;;0.68;;
43996;SDS011;34318;45.818;15.964;2023-08-06T05:33:35;0.60;;;0.60;;
43996;SDS011;34318;45.818;15.964;2023-08-06T05:36:02;0.68;;;0.68;;
43996;SDS011;34318;45.818;15.964;2023-08-06T05:38:29;0.50;;;0.50;;
43996;SDS011;34318;45.818;15.964;2023-08-06T05:40:57;0.50;;;0.50;;
43996;SDS011;34318;45.818;15.964;2023-08-06T05:43:24;0.60;;;0.60;;
43996;SDS011;34318;45.818;15.964;2023-08-06T05:45:51;0.60;;;0.60;;
43996;SDS011;34318;45.818;15.964;2023-08-06T05:48:19;0.60;;;0.60;;
43996;SDS011;34318;45.818;15.964;2023-08-06T05:50:46;0.60;;;0.60;;
43996;SDS011;34318;45.818;15.964;2023-08-06T05:53:13;0.80;;;0.80;;
43996;SDS011;34318;45.818;15.964;2023-08-06T05:55:40;0.50;;;0.50;;
43996;SDS011;34318;45.818;15.964;2023-08-06T05:58:08;0.57;;;0.57;;
43996;SDS011;34318;45.818;15.964;2023-08-06T06:00:35;0.38;;;0.38;;
43996;SDS011;34318;45.818;15.964;2023-08-06T06:03:02;0.50;;;0.50;;
43996;SDS011;34318;45.818;15.964;2023-08-06T06:05:29;0.63;;;0.63;;
43996;SDS011;34318;45.818;15.964;2023-08-06T06:07:56;0.50;;;0.50;;
43996;SDS011;34318;45.818;15.964;2023-08-06T06:10:24;0.57;;;0.57;;
43996;SDS011;34318;45.818;15.964;2023-08-06T06:12:51;0.55;;;0.55;;
43996;SDS011;34318;45.818;15.964;2023-08-06T06:15:18;0.40;;;0.40;;
43996;SDS011;34318;45.818;15.964;2023-08-06T06:17:45;0.50;;;0.50;;
43996;SDS011;34318;45.818;15.964;2023-08-06T06:20:13;0.50;;;0.50;;
43996;SDS011;34318;45.818;15.964;2023-08-06T06:22:40;0.75;;;0.60;;
43996;SDS011;34318;45.818;15.964;2023-08-06T06:25:07;1.05;;;1.05;;
43996;SDS011;34318;45.818;15.964;2023-08-06T06:27:36;0.57;;;0.57;;
43996;SDS011;34318;45.818;15.964;2023-08-06T06:30:03;0.52;;;0.52;;
43996;SDS011;34318;45.818;15.964;2023-08-06T06:32:31;0.70;;;0.70;;
43996;SDS011;34318;45.818;15.964;2023-08-06T06:34:58;0.30;;;0.30;;
43996;SDS011;34318;45.818;15.964;2023-08-06T06:37:26;0.50;;;0.50;;
43996;SDS011;34318;45.818;15.964;2023-08-06T06:39:53;1.75;;;0.70;;
43996;SDS011;34318;45.818;15.964;2023-08-06T06:42:20;0.70;;;0.70;;
43996;SDS011;34318;45.818;15.964;2023-08-06T06:44:49;0.30;;;0.30;;
43996;SDS011;34318;45.818;15.964;2023-08-06T06:47:16;0.50;;;0.50;;
43996;SDS011;34318;45.818;15.964;2023-08-06T06:49:43;0.43;;;0.43;;
43996;SDS011;34318;45.818;15.964;2023-08-06T06:52:10;0.63;;;0.63;;
43996;SDS011;34318;45.818;15.964;2023-08-06T06:54:38;0.65;;;0.65;;
43996;SDS011;34318;45.818;15.964;2023-08-06T06:57:05;0.40;;;0.40;;
43996;SDS011;34318;45.818;15.964;2023-08-06T06:59:32;0.80;;;0.65;;
43996;SDS011;34318;45.818;15.964;2023-08-06T07:01:59;0.38;;;0.38;;
43996;SDS011;34318;45.818;15.964;2023-08-06T07:04:27;0.57;;;0.57;;
43996;SDS011;34318;45.818;15.964;2023-08-06T07:06:54;0.63;;;0.63;;
43996;SDS011;34318;45.818;15.964;2023-08-06T07:09:21;0.65;;;0.65;;
43996;SDS011;34318;45.818;15.964;2023-08-06T07:11:48;0.75;;;0.75;;
43996;SDS011;34318;45.818;15.964;2023-08-06T07:14:16;0.43;;;0.30;;
43996;SDS011;34318;45.818;15.964;2023-08-06T07:16:44;0.47;;;0.47;;
43996;SDS011;34318;45.818;15.964;2023-08-06T07:19:11;0.57;;;0.57;;
43996;SDS011;34318;45.818;15.964;2023-08-06T07:21:38;0.30;;;0.30;;
43996;SDS011;34318;45.818;15.964;2023-08-06T07:24:06;0.70;;;0.70;;
43996;SDS011;34318;45.818;15.964;2023-08-06T07:26:33;0.50;;;0.50;;
43996;SDS011;34318;45.818;15.964;2023-08-06T07:29:00;0.45;;;0.45;;
43996;SDS011;34318;45.818;15.964;2023-08-06T07:31:27;2.58;;;1.27;;
43996;SDS011;34318;45.818;15.964;2023-08-06T07:33:55;0.40;;;0.40;;
43996;SDS011;34318;45.818;15.964;2023-08-06T07:36:22;0.50;;;0.50;;
43996;SDS011;34318;45.818;15.964;2023-08-06T07:38:49;0.57;;;0.57;;
43996;SDS011;34318;45.818;15.964;2023-08-06T07:41:22;0.40;;;0.40;;
43996;SDS011;34318;45.818;15.964;2023-08-06T07:43:49;0.65;;;0.65;;
43996;SDS011;34318;45.818;15.964;2023-08-06T07:46:16;0.60;;;0.60;;
43996;SDS011;34318;45.818;15.964;2023-08-06T07:48:44;0.60;;;0.60;;
43996;SDS011;34318;45.818;15.964;2023-08-06T07:51:11;0.82;;;0.75;;
43996;SDS011;34318;45.818;15.964;2023-08-06T07:53:38;0.60;;;0.60;;
43996;SDS011;34318;45.818;15.964;2023-08-06T07:56:06;0.40;;;0.40;;
43996;SDS011;34318;45.818;15.964;2023-08-06T07:58:33;0.52;;;0.52;;
43996;SDS011;34318;45.818;15.964;2023-08-06T08:01:00;0.80;;;0.80;;
43996;SDS011;34318;45.818;15.964;2023-08-06T08:03:30;0.60;;;0.60;;
43996;SDS011;34318;45.818;15.964;2023-08-06T08:05:58;0.45;;;0.45;;
43996;SDS011;34318;45.818;15.964;2023-08-06T08:08:25;0.50;;;0.50;;
43996;SDS011;34318;45.818;15.964;2023-08-06T08:10:52;0.85;;;0.85;;
43996;SDS011;34318;45.818;15.964;2023-08-06T08:13:21;0.75;;;0.75;;
43996;SDS011;34318;45.818;15.964;2023-08-06T08:15:48;1.05;;;1.05;;
43996;SDS011;34318;45.818;15.964;2023-08-06T08:18:16;0.63;;;0.60;;
43996;SDS011;34318;45.818;15.964;2023-08-06T08:20:43;0.60;;;0.60;;
43996;SDS011;34318;45.818;15.964;2023-08-06T08:23:10;0.63;;;0.63;;
43996;SDS011;34318;45.818;15.964;2023-08-06T08:25:40;1.30;;;1.10;;
43996;SDS011;34318;45.818;15.964;2023-08-06T08:28:07;0.93;;;0.88;;
43996;SDS011;34318;45.818;15.964;2023-08-06T08:30:35;0.60;;;0.60;;
43996;SDS011;34318;45.818;15.964;2023-08-06T08:33:02;0.85;;;0.85;;
43996;SDS011;34318;45.818;15.964;2023-08-06T08:35:29;0.50;;;0.50;;
43996;SDS011;34318;45.818;15.964;2023-08-06T08:37:56;0.70;;;0.70;;
43996;SDS011;34318;45.818;15.964;2023-08-06T08:40:24;0.80;;;0.80;;
43996;SDS011;34318;45.818;15.964;2023-08-06T08:42:58;0.63;;;0.63;;
43996;SDS011;34318;45.818;15.964;2023-08-06T08:45:29;0.82;;;0.82;;
43996;SDS011;34318;45.818;15.964;2023-08-06T08:47:56;0.63;;;0.63;;
43996;SDS011;34318;45.818;15.964;2023-08-06T08:50:24;1.08;;;0.85;;
43996;SDS011;34318;45.818;15.964;2023-08-06T08:52:51;0.75;;;0.75;;
43996;SDS011;34318;45.818;15.964;2023-08-06T08:55:19;0.77;;;0.77;;
43996;SDS011;34318;45.818;15.964;2023-08-06T08:57:47;0.57;;;0.57;;
43996;SDS011;34318;45.818;15.964;2023-08-06T09:00:14;0.80;;;0.80;;
43996;SDS011;34318;45.818;15.964;2023-08-06T09:02:42;0.63;;;0.63;;
43996;SDS011;34318;45.818;15.964;2023-08-06T09:05:12;0.82;;;0.82;;
43996;SDS011;34318;45.818;15.964;2023-08-06T09:07:43;0.50;;;0.50;;
43996;SDS011;34318;45.818;15.964;2023-08-06T09:10:12;1.02;;;1.02;;
43996;SDS011;34318;45.818;15.964;2023-08-06T09:12:41;0.55;;;0.55;;
43996;SDS011;34318;45.818;15.964;2023-08-06T09:15:08;0.47;;;0.47;;
43996;SDS011;34318;45.818;15.964;2023-08-06T09:17:36;0.68;;;0.68;;
43996;SDS011;34318;45.818;15.964;2023-08-06T09:20:08;0.40;;;0.40;;
43996;SDS011;34318;45.818;15.964;2023-08-06T09:22:36;0.73;;;0.73;;
43996;SDS011;34318;45.818;15.964;2023-08-06T09:25:04;0.98;;;0.93;;
43996;SDS011;34318;45.818;15.964;2023-08-06T09:27:36;0.63;;;0.63;;
43996;SDS011;34318;45.818;15.964;2023-08-06T09:30:04;1.15;;;1.15;;
43996;SDS011;34318;45.818;15.964;2023-08-06T09:32:47;0.90;;;0.90;;
43996;SDS011;34318;45.818;15.964;2023-08-06T09:35:18;0.85;;;0.85;;
43996;SDS011;34318;45.818;15.964;2023-08-06T09:37:45;1.20;;;1.10;;
43996;SDS011;34318;45.818;15.964;2023-08-06T09:40:27;1.05;;;1.05;;
43996;SDS011;34318;45.818;15.964;2023-08-06T09:42:55;1.00;;;1.00;;
43996;SDS011;34318;45.818;15.964;2023-08-06T09:45:23;0.90;;;0.90;;
43996;SDS011;34318;45.818;15.964;2023-08-06T09:47:50;1.23;;;1.10;;
43996;SDS011;34318;45.818;15.964;2023-08-06T09:50:18;1.10;;;1.10;;
43996;SDS011;34318;45.818;15.964;2023-08-06T09:52:48;0.95;;;0.95;;
43996;SDS011;34318;45.818;15.964;2023-08-06T09:55:17;1.15;;;1.13;;
43996;SDS011;34318;45.818;15.964;2023-08-06T09:57:48;0.80;;;0.80;;
43996;SDS011;34318;45.818;15.964;2023-08-06T10:00:16;0.95;;;0.95;;
43996;SDS011;34318;45.818;15.964;2023-08-06T10:02:43;1.13;;;0.93;;
43996;SDS011;34318;45.818;15.964;2023-08-06T10:05:10;1.20;;;1.15;;
43996;SDS011;34318;45.818;15.964;2023-08-06T10:07:38;0.85;;;0.85;;
43996;SDS011;34318;45.818;15.964;2023-08-06T10:10:06;0.90;;;0.90;;
43996;SDS011;34318;45.818;15.964;2023-08-06T10:12:34;1.00;;;1.00;;
43996;SDS011;34318;45.818;15.964;2023-08-06T10:15:04;1.27;;;1.17;;
43996;SDS011;34318;45.818;15.964;2023-08-06T10:17:33;1.17;;;1.17;;
43996;SDS011;34318;45.818;15.964;2023-08-06T10:20:15;1.38;;;1.27;;
43996;SDS011;34318;45.818;15.964;2023-08-06T10:22:43;0.75;;;0.75;;
43996;SDS011;34318;45.818;15.964;2023-08-06T10:25:15;0.88;;;0.88;;
43996;SDS011;34318;45.818;15.964;2023-08-06T10:32:53;1.13;;;1.13;;
43996;SDS011;34318;45.818;15.964;2023-08-06T10:35:27;0.80;;;0.80;;
43996;SDS011;34318;45.818;15.964;2023-08-06T10:38:08;0.70;;;0.70;;
43996;SDS011;34318;45.818;15.964;2023-08-06T10:40:36;1.10;;;1.10;;
43996;SDS011;34318;45.818;15.964;2023-08-06T10:43:04;1.50;;;1.40;;
43996;SDS011;34318;45.818;15.964;2023-08-06T10:45:37;1.38;;;1.27;;
43996;SDS011;34318;45.818;15.964;2023-08-06T10:48:04;1.35;;;1.25;;
43996;SDS011;34318;45.818;15.964;2023-08-06T10:50:32;1.10;;;1.10;;
43996;SDS011;34318;45.818;15.964;2023-08-06T10:53:03;0.93;;;0.93;;
43996;SDS011;34318;45.818;15.964;2023-08-06T10:55:32;1.05;;;1.05;;
43996;SDS011;34318;45.818;15.964;2023-08-06T10:57:59;2.38;;;1.52;;
43996;SDS011;34318;45.818;15.964;2023-08-06T11:00:26;1.05;;;1.05;;
43996;SDS011;34318;45.818;15.964;2023-08-06T11:02:54;1.38;;;1.27;;
43996;SDS011;34318;45.818;15.964;2023-08-06T11:05:21;1.58;;;1.50;;
43996;SDS011;34318;45.818;15.964;2023-08-06T11:07:49;0.95;;;0.95;;
43996;SDS011;34318;45.818;15.964;2023-08-06T11:10:17;0.95;;;0.95;;
43996;SDS011;34318;45.818;15.964;2023-08-06T11:12:45;1.17;;;1.15;;
43996;SDS011;34318;45.818;15.964;2023-08-06T11:15:12;1.30;;;1.20;;
43996;SDS011;34318;45.818;15.964;2023-08-06T11:17:40;1.23;;;1.13;;
43996;SDS011;34318;45.818;15.964;2023-08-06T11:20:08;1.15;;;1.15;;
43996;SDS011;34318;45.818;15.964;2023-08-06T11:22:36;1.45;;;1.15;;
43996;SDS011;34318;45.818;15.964;2023-08-06T11:25:05;1.10;;;1.10;;
43996;SDS011;34318;45.818;15.964;2023-08-06T11:27:32;1.00;;;1.00;;
43996;SDS011;34318;45.818;15.964;2023-08-06T11:30:00;0.95;;;0.95;;
43996;SDS011;34318;45.818;15.964;2023-08-06T11:32:27;1.17;;;1.17;;
43996;SDS011;34318;45.818;15.964;2023-08-06T11:34:55;1.13;;;1.13;;
43996;SDS011;34318;45.818;15.964;2023-08-06T11:37:23;1.40;;;1.30;;
43996;SDS011;34318;45.818;15.964;2023-08-06T11:39:53;1.45;;;1.35;;
43996;SDS011;34318;45.818;15.964;2023-08-06T11:42:20;1.10;;;1.10;;
43996;SDS011;34318;45.818;15.964;2023-08-06T11:44:47;1.00;;;1.00;;
43996;SDS011;34318;45.818;15.964;2023-08-06T11:47:15;1.10;;;1.00;;
43996;SDS011;34318;45.818;15.964;2023-08-06T11:49:46;1.50;;;1.40;;
43996;SDS011;34318;45.818;15.964;2023-08-06T11:52:18;1.58;;;1.48;;
43996;SDS011;34318;45.818;15.964;2023-08-06T11:54:46;1.10;;;1.10;;
43996;SDS011;34318;45.818;15.964;2023-08-06T11:57:14;1.10;;;1.10;;
43996;SDS011;34318;45.818;15.964;2023-08-06T11:59:43;1.50;;;1.40;;
43996;SDS011;34318;45.818;15.964;2023-08-06T12:02:11;1.75;;;1.65;;
43996;SDS011;34318;45.818;15.964;2023-08-06T12:07:28;2.00;;;1.90;;
43996;SDS011;34318;45.818;15.964;2023-08-06T12:09:56;1.77;;;1.67;;
43996;SDS011;34318;45.818;15.964;2023-08-06T12:12:24;1.88;;;1.77;;
43996;SDS011;34318;45.818;15.964;2023-08-06T12:14:51;2.58;;;2.38;;
43996;SDS011;34318;45.818;15.964;2023-08-06T12:17:18;2.15;;;2.00;;
43996;SDS011;34318;45.818;15.964;2023-08-06T12:19:46;2.20;;;2.10;;
43996;SDS011;34318;45.818;15.964;2023-08-06T12:22:14;2.50;;;2.15;;
43996;SDS011;34318;45.818;15.964;2023-08-06T12:24:42;2.47;;;2.28;;
43996;SDS011;34318;45.818;15.964;2023-08-06T12:27:09;2.55;;;2.35;;
43996;SDS011;34318;45.818;15.964;2023-08-06T12:29:47;1.80;;;1.70;;
43996;SDS011;34318;45.818;15.964;2023-08-06T12:32:14;2.03;;;1.88;;
43996;SDS011;34318;45.818;15.964;2023-08-06T12:34:42;2.00;;;1.90;;
43996;SDS011;34318;45.818;15.964;2023-08-06T12:37:18;2.22;;;1.77;;
43996;SDS011;34318;45.818;15.964;2023-08-06T12:39:46;2.10;;;2.00;;
43996;SDS011;34318;45.818;15.964;2023-08-06T12:42:13;2.38;;;2.20;;
43996;SDS011;34318;45.818;15.964;2023-08-06T12:44:40;2.20;;;2.00;;
43996;SDS011;34318;45.818;15.964;2023-08-06T12:47:08;2.00;;;1.90;;
43996;SDS011;34318;45.818;15.964;2023-08-06T12:49:35;2.72;;;2.20;;
43996;SDS011;34318;45.818;15.964;2023-08-06T12:52:02;2.45;;;2.00;;
43996;SDS011;34318;45.818;15.964;2023-08-06T12:54:32;2.30;;;2.00;;
43996;SDS011;34318;45.818;15.964;2023-08-06T12:57:03;1.88;;;1.77;;
43996;SDS011;34318;45.818;15.964;2023-08-06T12:59:31;2.22;;;2.03;;
43996;SDS011;34318;45.818;15.964;2023-08-06T13:02:06;2.20;;;2.10;;
43996;SDS011;34318;45.818;15.964;2023-08-06T13:04:33;1.83;;;1.73;;
43996;SDS011;34318;45.818;15.964;2023-08-06T13:07:00;1.67;;;1.58;;
43996;SDS011;34318;45.818;15.964;2023-08-06T13:09:28;1.90;;;1.80;;
43996;SDS011;34318;45.818;15.964;2023-08-06T13:11:58;1.88;;;1.77;;
43996;SDS011;34318;45.818;15.964;2023-08-06T13:14:26;2.10;;;1.90;;
43996;SDS011;34318;45.818;15.964;2023-08-06T13:16:54;2.05;;;1.83;;
43996;SDS011;34318;45.818;15.964;2023-08-06T13:19:22;2.35;;;2.15;;
43996;SDS011;34318;45.818;15.964;2023-08-06T13:24:17;2.30;;;2.10;;
43996;SDS011;34318;45.818;15.964;2023-08-06T13:26:44;1.83;;;1.73;;
43996;SDS011;34318;45.818;15.964;2023-08-06T13:29:11;2.03;;;1.92;;
43996;SDS011;34318;45.818;15.964;2023-08-06T13:31:39;2.75;;;2.03;;
43996;SDS011;34318;45.818;15.964;2023-08-06T13:34:06;1.83;;;1.67;;
43996;SDS011;34318;45.818;15.964;2023-08-06T13:36:33;1.98;;;1.88;;
43996;SDS011;34318;45.818;15.964;2023-08-06T13:39:01;2.20;;;2.00;;
43996;SDS011;34318;45.818;15.964;2023-08-06T13:41:29;2.00;;;1.83;;
43996;SDS011;34318;45.818;15.964;2023-08-06T13:43:56;1.75;;;1.65;;
43996;SDS011;34318;45.818;15.964;2023-08-06T13:46:24;1.98;;;1.88;;
43996;SDS011;34318;45.818;15.964;2023-08-06T13:48:51;1.77;;;1.67;;
43996;SDS011;34318;45.818;15.964;2023-08-06T13:51:18;1.67;;;1.58;;
43996;SDS011;34318;45.818;15.964;2023-08-06T13:53:46;2.17;;;1.70;;
43996;SDS011;34318;45.818;15.964;2023-08-06T13:56:13;1.67;;;1.60;;
43996;SDS011;34318;45.818;15.964;2023-08-06T13:58:43;1.65;;;1.55;;
43996;SDS011;34318;45.818;15.964;2023-08-06T14:01:11;1.98;;;1.88;;
43996;SDS011;34318;45.818;15.964;2023-08-06T14:03:39;1.77;;;1.67;;
43996;SDS011;34318;45.818;15.964;2023-08-06T14:06:07;1.95;;;1.85;;
43996;SDS011;34318;45.818;15.964;2023-08-06T14:08:34;12.20;;;5.70;;
43996;SDS011;34318;45.818;15.964;2023-08-06T14:11:01;31.08;;;12.65;;
43996;SDS011;34318;45.818;15.964;2023-08-06T14:13:28;49.95;;;20.58;;
43996;SDS011;34318;45.818;15.964;2023-08-06T14:15:56;49.03;;;21.58;;
43996;SDS011;34318;45.818;15.964;2023-08-06T14:18:23;36.13;;;17.15;;
43996;SDS011;34318;45.818;15.964;2023-08-06T14:20:50;30.63;;;12.93;;
43996;SDS011;34318;45.818;15.964;2023-08-06T14:23:17;26.20;;;12.55;;
43996;SDS011;34318;45.818;15.964;2023-08-06T14:25:45;22.48;;;10.48;;
43996;SDS011;34318;45.818;15.964;2023-08-06T14:28:12;18.08;;;9.82;;
43996;SDS011;34318;45.818;15.964;2023-08-06T14:30:39;15.30;;;8.75;;
43996;SDS011;34318;45.818;15.964;2023-08-06T14:33:07;22.73;;;10.13;;
43996;SDS011;34318;45.818;15.964;2023-08-06T14:35:51;17.38;;;8.73;;
43996;SDS011;34318;45.818;15.964;2023-08-06T14:38:19;16.58;;;8.38;;
43996;SDS011;34318;45.818;15.964;2023-08-06T14:40:46;15.13;;;7.88;;
43996;SDS011;34318;45.818;15.964;2023-08-06T14:43:14;15.77;;;7.57;;
43996;SDS011;34318;45.818;15.964;2023-08-06T14:45:41;15.50;;;8.00;;
43996;SDS011;34318;45.818;15.964;2023-08-06T14:48:09;14.18;;;6.40;;
43996;SDS011;34318;45.818;15.964;2023-08-06T14:50:36;14.50;;;7.00;;
43996;SDS011;34318;45.818;15.964;2023-08-06T14:53:05;13.32;;;6.65;;